Time;durP1;ratioP1;P1;durP2;ratioP2;P2;SDS_P1;SDS_P2;PMS_P1;PMS_P2;Temp;Humidity;BMP_temperature;BMP_pressure;BME280_temperature;BME280_humidity;BME280_pressure;Samples;Min_cycle;Max_cycle;Signal;HPM_P1;HPM_P2
2021/11/04 00:12:16;;;;;;;149.18;41.65;;;;;;;6.05;100.00;100393.31;2597021;54;20141;-71
2021/11/04 00:37:56;;;;;;;96.32;34.53;;;;;;;6.20;100.00;100384.13;2613844;36;20111;-71
2021/11/04 02:50:20;;;;;;;70.97;28.80;;;;;;;5.52;100.00;100341.22;2594774;54;20058;-72
2021/11/04 03:12:22;;;;;;;83.25;29.13;;;;;;;5.25;100.00;100352.97;2600710;39;20132;-70
2021/11/04 06:20:29;;;;;;;76.88;33.65;;;;;;;4.32;100.00;100446.72;2621962;36;20057;-68
2021/11/04 06:33:00;;;;;;;83.90;34.58;;;;;;;4.39;100.00;100456.00;2637590;36;20082;-68
2021/11/04 06:39:04;;;;;;;87.93;35.30;;;;;;;4.42;100.00;100448.75;2604498;36;20038;-68
2021/11/04 06:41:32;;;;;;;81.82;34.38;;;;;;;4.47;100.00;100452.81;2603057;36;20069;-69
2021/11/04 06:44:00;;;;;;;73.95;32.55;;;;;;;4.50;100.00;100446.41;2603850;31;20034;-69
2021/11/04 06:46:31;;;;;;;71.80;33.90;;;;;;;4.51;100.00;100456.13;2603861;36;20039;-68
2021/11/04 06:49:13;;;;;;;73.65;31.90;;;;;;;4.51;100.00;100442.81;2606110;36;20030;-69
2021/11/04 06:51:50;;;;;;;76.63;35.53;;;;;;;4.46;100.00;100443.13;2621650;36;20031;-69
2021/11/04 06:54:22;;;;;;;74.75;31.98;;;;;;;4.49;100.00;100442.91;2602306;36;20030;-70
2021/11/04 06:56:50;;;;;;;70.70;32.90;;;;;;;4.51;100.00;100440.97;2605193;36;20490;-69
2021/11/04 06:59:20;;;;;;;78.30;34.78;;;;;;;4.62;100.00;100450.03;2602433;36;20552;-69
2021/11/04 07:01:54;;;;;;;82.50;34.58;;;;;;;4.60;100.00;100451.97;2603803;36;20062;-69
2021/11/04 07:04:28;;;;;;;71.88;33.55;;;;;;;4.56;100.00;100446.84;2607682;36;20145;-69
2021/11/04 07:07:04;;;;;;;69.50;31.60;;;;;;;4.59;100.00;100450.25;2610703;36;20035;-70
2021/11/04 07:09:37;;;;;;;70.32;32.55;;;;;;;4.56;100.00;100453.97;2611045;36;20035;-69
2021/11/04 07:12:07;;;;;;;82.20;34.78;;;;;;;4.58;100.00;100454.75;2611080;31;20630;-68
2021/11/04 07:14:37;;;;;;;73.00;34.42;;;;;;;4.69;100.00;100465.47;2611341;36;20037;-69
2021/11/04 07:17:06;;;;;;;;;;;;;;;4.67;100.00;100463.91;2611598;36;20043;-69
2021/11/04 07:19:34;;;;;;;65.90;31.52;;;;;;;4.74;100.00;100475.81;2611179;36;20077;-69
2021/11/04 07:22:13;;;;;;;74.22;33.10;;;;;;;4.81;100.00;100477.09;2611827;36;20518;-70
2021/11/04 07:24:48;;;;;;;67.97;33.30;;;;;;;4.90;100.00;100483.59;2611164;31;20030;-70
2021/11/04 07:27:19;;;;;;;70.80;33.42;;;;;;;4.95;100.00;100488.59;2611225;36;20030;-70
2021/11/04 07:29:51;;;;;;;73.30;33.38;;;;;;;4.83;100.00;100477.84;2611093;36;20037;-69
2021/11/04 07:32:20;;;;;;;66.38;32.25;;;;;;;4.98;100.00;100488.41;2610004;36;20556;-68
2021/11/04 07:34:52;;;;;;;67.50;32.42;;;;;;;5.02;100.00;100489.88;2610943;36;20141;-69
2021/11/04 07:37:20;;;;;;;58.55;30.95;;;;;;;4.94;100.00;100486.91;2611010;36;20587;-69
2021/11/04 07:39:52;;;;;;;62.53;31.42;;;;;;;5.04;100.00;100493.28;2611381;36;20085;-70
2021/11/04 07:42:21;;;;;;;69.07;33.30;;;;;;;5.05;100.00;100490.53;2612293;31;20539;-69
2021/11/04 07:44:49;;;;;;;62.80;31.20;;;;;;;5.12;100.00;100496.25;2611870;36;20184;-69
2021/11/04 07:47:18;;;;;;;62.58;31.20;;;;;;;5.17;100.00;100486.13;2611402;36;20045;-69
2021/11/04 07:49:47;;;;;;;60.95;31.50;;;;;;;5.13;100.00;100489.13;2610979;36;20595;-69
2021/11/04 07:52:15;;;;;;;67.80;31.02;;;;;;;5.20;100.00;100490.38;2611382;36;20061;-69
2021/11/04 07:54:43;;;;;;;60.80;32.08;;;;;;;5.23;100.00;100492.84;2611985;31;20586;-70
2021/11/04 07:57:14;;;;;;;59.08;31.00;;;;;;;5.31;100.00;100494.94;2612013;36;20053;-68
2021/11/04 07:59:42;;;;;;;60.60;28.50;;;;;;;5.37;100.00;100486.47;2611516;36;20878;-69
2021/11/04 08:02:16;;;;;;;60.70;31.67;;;;;;;5.53;100.00;100487.06;2610978;36;20051;-68
2021/11/04 08:07:25;;;;;;;57.88;30.23;;;;;;;5.35;100.00;100496.44;2608393;36;20038;-69
2021/11/04 08:10:06;;;;;;;50.80;28.33;;;;;;;5.37;100.00;100494.47;2610581;36;20034;-69
2021/11/04 08:12:45;;;;;;;57.42;30.00;;;;;;;5.45;100.00;100492.13;2611248;36;20386;-68
2021/11/04 08:17:59;;;;;;;64.10;30.67;;;;;;;5.61;100.00;100498.03;2609547;36;20061;-69
2021/11/04 08:20:29;;;;;;;58.88;31.45;;;;;;;5.68;100.00;100502.91;2611329;36;20038;-69
2021/11/04 08:23:01;;;;;;;53.72;28.08;;;;;;;5.69;100.00;100499.28;2610374;36;20538;-69
2021/11/04 08:25:51;;;;;;;54.72;28.70;;;;;;;5.84;100.00;100502.63;2610141;36;20142;-69
2021/11/04 08:28:23;;;;;;;;;;;;;;;6.03;100.00;100510.16;2610455;36;20130;-69
2021/11/04 08:30:52;;;;;;;48.40;26.40;;;;;;;5.85;100.00;100507.84;2611018;31;19946;-68
2021/11/04 08:33:20;;;;;;;52.97;28.20;;;;;;;6.01;100.00;100520.09;2611577;36;20150;-69
2021/11/04 08:35:48;;;;;;;47.25;27.17;;;;;;;6.12;100.00;100504.13;2611694;36;20031;-68
2021/11/04 08:38:20;;;;;;;50.38;26.67;;;;;;;6.06;100.00;100507.25;2611083;36;20618;-69
2021/11/04 08:41:23;;;;;;;45.45;25.83;;;;;;;6.25;100.00;100507.56;2611145;36;20606;-68
2021/11/04 08:44:09;;;;;;;47.90;27.08;;;;;;;6.25;100.00;100506.72;2611634;36;20037;-69
2021/11/04 08:46:40;;;;;;;43.30;25.27;;;;;;;6.32;100.00;100503.44;2610403;36;20146;-69
2021/11/04 08:49:11;;;;;;;38.22;23.85;;;;;;;6.48;100.00;100499.59;2611496;36;20053;-69
2021/11/04 08:51:40;;;;;;;37.95;21.63;;;;;;;6.39;100.00;100498.50;2610687;36;20030;-69
2021/11/04 08:54:11;;;;;;;32.73;21.33;;;;;;;6.40;100.00;100499.34;2610375;36;20035;-68
2021/11/04 08:56:54;;;;;;;35.92;22.30;;;;;;;6.35;100.00;100502.38;2610758;36;20030;-69
2021/11/04 08:59:33;;;;;;;33.25;21.38;;;;;;;6.38;100.00;100506.63;2611439;36;20065;-69
2021/11/04 09:05:07;;;;;;;32.55;22.13;;;;;;;6.57;100.00;100511.41;2629186;36;20031;-69
2021/11/04 09:07:37;;;;;;;34.67;21.93;;;;;;;6.63;100.00;100522.47;2611573;36;20031;-69
2021/11/04 09:10:06;;;;;;;;;;;;;;;6.63;100.00;100527.81;2610652;36;20118;-68
2021/11/04 09:12:34;;;;;;;30.27;19.58;;;;;;;6.58;100.00;100523.78;2611750;31;19970;-69
2021/11/04 09:15:06;;;;;;;39.65;21.15;;;;;;;6.72;100.00;100530.75;2611090;36;20030;-69
2021/11/04 09:17:35;;;;;;;27.65;20.05;;;;;;;6.82;100.00;100531.75;2612063;36;20034;-69
2021/11/04 09:20:11;;;;;;;30.38;19.52;;;;;;;6.89;100.00;100535.66;2629696;36;20057;-68
2021/11/04 09:22:40;;;;;;;29.25;19.55;;;;;;;6.99;100.00;100536.63;2611741;36;20591;-70
2021/11/04 09:25:09;;;;;;;28.00;19.13;;;;;;;6.98;100.00;100537.59;2611492;36;20138;-69
2021/11/04 09:27:37;;;;;;;29.13;19.20;;;;;;;6.99;100.00;100539.31;2612517;31;20543;-69
2021/11/04 09:30:09;;;;;;;25.58;18.42;;;;;;;6.98;100.00;100540.28;2611740;36;20161;-68
2021/11/04 09:35:49;;;;;;;24.02;17.50;;;;;;;7.30;100.00;100542.22;2612250;36;20053;-68
2021/11/04 09:38:18;;;;;;;24.80;17.63;;;;;;;7.33;100.00;100546.47;2612239;36;20030;-69
2021/11/04 09:40:46;;;;;;;22.75;17.70;;;;;;;7.28;100.00;100549.50;2611569;36;20582;-69
2021/11/04 09:43:15;;;;;;;24.85;17.58;;;;;;;7.35;100.00;100548.03;2612239;31;20034;-69
2021/11/04 09:48:36;;;;;;;23.80;16.20;;;;;;;7.43;100.00;100542.06;2628674;36;20030;-69
2021/11/04 09:51:07;;;;;;;21.08;15.30;;;;;;;7.52;100.00;100551.19;2612244;36;20038;-69
2021/11/04 09:56:38;;;;;;;23.10;14.75;;;;;;;7.80;100.00;100559.66;2611041;36;20038;-70
2021/11/04 09:59:38;;;;;;;20.67;14.10;;;;;;;7.70;100.00;100555.06;2611903;36;20069;-69
2021/11/04 10:05:06;;;;;;;19.27;14.07;;;;;;;7.89;100.00;100562.44;2613063;31;20554;-69
2021/11/04 10:07:48;;;;;;;21.05;13.32;;;;;;;8.06;100.00;100566.41;2612385;31;20133;-69
2021/11/04 10:10:18;;;;;;;15.10;12.38;;;;;;;8.05;100.00;100564.72;2611020;36;20582;-70
2021/11/04 10:13:26;;;;;;;14.63;12.18;;;;;;;8.11;100.00;100563.34;2611503;36;20119;-71
2021/11/04 10:15:57;;;;;;;19.40;11.30;;;;;;;8.09;100.00;100559.09;2610208;36;20141;-70
2021/11/04 10:18:31;;;;;;;13.32;11.48;;;;;;;8.17;100.00;100562.84;2605912;36;20060;-70
2021/11/04 10:21:02;;;;;;;15.07;10.63;;;;;;;8.19;100.00;100560.88;2605422;36;20034;-69
2021/11/04 10:23:39;;;;;;;16.35;11.40;;;;;;;8.37;100.00;100569.19;2609040;36;20198;-69
2021/11/04 10:26:10;;;;;;;10.60;8.20;;;;;;;8.39;100.00;100577.13;2605271;36;20645;-70
2021/11/04 10:29:00;;;;;;;10.27;7.85;;;;;;;8.45;100.00;100579.34;2606770;36;20035;-69
2021/11/04 10:31:38;;;;;;;13.75;7.75;;;;;;;8.47;100.00;100579.22;2606587;36;20077;-70
2021/11/04 10:34:15;;;;;;;12.70;8.32;;;;;;;8.67;100.00;100577.50;2612064;36;20063;-69
2021/11/04 10:36:45;;;;;;;11.88;6.72;;;;;;;8.85;100.00;100583.13;2612145;36;20638;-70
2021/11/04 10:39:41;;;;;;;10.32;6.45;;;;;;;8.96;100.00;100587.59;2610788;36;20062;-70
2021/11/04 10:42:11;;;;;;;9.32;6.60;;;;;;;9.18;100.00;100583.88;2610822;36;20034;-69
2021/11/04 10:44:39;;;;;;;6.35;4.47;;;;;;;9.07;100.00;100580.31;2612165;36;20569;-70
2021/11/04 10:47:08;;;;;;;4.78;3.67;;;;;;;9.17;100.00;100582.16;2611995;36;20034;-69
2021/11/04 10:49:46;;;;;;;10.75;5.22;;;;;;;9.04;100.00;100579.69;2611458;36;20747;-68
2021/11/04 10:52:18;;;;;;;7.32;4.43;;;;;;;9.01;100.00;100585.34;2611672;31;20041;-69
2021/11/04 10:54:47;;;;;;;6.82;3.45;;;;;;;8.98;100.00;100583.78;2611042;36;20126;-70
2021/11/04 10:57:16;;;;;;;9.68;5.28;;;;;;;8.96;100.00;100590.25;2612247;36;20038;-69
2021/11/04 10:59:47;;;;;;;4.80;3.40;;;;;;;9.09;100.00;100601.66;2611716;36;20149;-70
2021/11/04 11:02:17;;;;;;;9.25;4.78;;;;;;;9.12;100.00;100604.06;2612081;36;20434;-69
2021/11/04 11:04:48;;;;;;;6.57;4.93;;;;;;;9.19;100.00;100602.53;2611740;36;20030;-71
2021/11/04 11:07:24;;;;;;;8.60;5.32;;;;;;;9.15;100.00;100601.09;2612167;36;20054;-69
2021/11/04 11:09:53;;;;;;;9.88;7.05;;;;;;;9.03;100.00;100597.66;2611847;36;20030;-71
2021/11/04 11:12:22;;;;;;;10.98;7.60;;;;;;;8.96;100.00;100596.47;2611384;36;20186;-69
2021/11/04 11:14:51;;;;;;;9.75;7.45;;;;;;;8.76;100.00;100590.16;2609822;36;20455;-71
2021/11/04 11:17:19;;;;;;;12.75;7.72;;;;;;;8.75;100.00;100599.19;2611506;36;20130;-70
2021/11/04 11:19:52;;;;;;;9.55;7.20;;;;;;;8.90;100.00;100599.69;2611157;36;20035;-69
2021/11/04 11:22:24;;;;;;;11.15;8.07;;;;;;;8.99;100.00;100609.63;2611325;36;20150;-70
2021/11/04 11:24:52;;;;;;;12.70;8.27;;;;;;;8.91;100.00;100620.19;2609829;36;20035;-69
2021/11/04 11:27:26;;;;;;;12.07;8.77;;;;;;;8.89;100.00;100611.41;2610936;36;20536;-70
2021/11/04 11:30:10;;;;;;;12.57;8.90;;;;;;;8.75;100.00;100615.28;2610784;36;20639;-69
2021/11/04 11:32:38;;;;;;;12.30;8.88;;;;;;;8.79;100.00;100623.91;2611379;36;20574;-71
2021/11/04 11:35:21;;;;;;;12.60;9.43;;;;;;;9.08;100.00;100622.28;2610603;36;20563;-71
2021/11/04 11:38:06;;;;;;;12.52;8.98;;;;;;;9.39;100.00;100618.75;2611829;31;20046;-71
2021/11/04 11:40:37;;;;;;;12.60;8.20;;;;;;;9.64;100.00;100622.81;2610651;36;20058;-70
2021/11/04 11:43:51;;;;;;;10.75;7.88;;;;;;;9.88;100.00;100621.59;2610791;36;20065;-71
2021/11/04 11:46:20;;;;;;;9.77;6.90;;;;;;;10.31;100.00;100615.03;2610827;36;20133;-70
2021/11/04 11:52:11;;;;;;;8.52;6.93;;;;;;;10.66;100.00;100619.06;2610612;36;20102;-70
2021/11/04 11:55:06;;;;;;;7.18;6.15;;;;;;;10.74;100.00;100621.84;2609625;31;20038;-70
2021/11/04 11:57:36;;;;;;;8.05;6.35;;;;;;;10.77;100.00;100615.34;2610985;31;22108;-70
2021/11/04 12:00:13;;;;;;;8.77;6.68;;;;;;;10.94;100.00;100621.81;2610046;36;20530;-71
2021/11/04 12:02:54;;;;;;;10.65;6.05;;;;;;;11.06;100.00;100623.38;2611523;36;20127;-71
2021/11/04 12:09:06;;;;;;;9.05;5.95;;;;;;;11.05;100.00;100635.97;2628463;36;20042;-71
2021/11/04 12:11:48;;;;;;;10.90;6.63;;;;;;;10.96;100.00;100638.69;2610825;36;20065;-70
2021/11/04 12:17:27;;;;;;;7.53;4.00;;;;;;;11.11;100.00;100633.72;2608640;36;20096;-71
2021/11/04 12:20:04;;;;;;;5.85;4.50;;;;;;;11.11;100.00;100644.47;2610661;36;20037;-71
2021/11/04 12:25:16;;;;;;;2.90;1.40;;;;;;;11.27;100.00;100643.88;2610717;31;20534;-71
2021/11/04 12:30:30;;;;;;;4.55;2.35;;;;;;;10.98;100.00;100656.44;2627539;36;20034;-71
2021/11/04 12:33:01;;;;;;;8.88;5.45;;;;;;;10.98;100.00;100650.16;2611053;36;20134;-71
2021/11/04 12:35:48;;;;;;;8.70;5.18;;;;;;;10.34;100.00;100658.66;2611317;36;20038;-71
2021/11/04 12:38:17;;;;;;;10.38;6.32;;;;;;;10.45;100.00;100671.16;2610531;36;20122;-70
2021/11/04 12:40:46;;;;;;;11.55;6.50;;;;;;;10.38;100.00;100667.34;2610766;36;20034;-71
2021/11/04 12:43:17;;;;;;;8.52;5.93;;;;;;;10.29;100.00;100671.69;2610635;36;20038;-71
2021/11/04 12:45:54;;;;;;;7.03;5.82;;;;;;;10.22;100.00;100664.28;2612158;36;20619;-70
2021/11/04 12:48:49;;;;;;;12.50;7.05;;;;;;;10.59;100.00;100658.28;2610432;36;20057;-70
2021/11/04 12:51:18;;;;;;;8.95;6.15;;;;;;;10.57;100.00;100654.88;2611051;36;20144;-71
2021/11/04 12:53:55;;;;;;;9.70;5.13;;;;;;;10.63;100.00;100662.38;2610309;36;20034;-70
2021/11/04 12:56:24;;;;;;;9.13;5.45;;;;;;;10.60;100.00;100658.13;2610363;36;20034;-71
2021/11/04 13:01:59;;;;;;;;;;;;;;;10.44;100.00;100668.63;2609641;36;20034;-70
2021/11/04 13:04:47;;;;;;;7.07;5.18;;;;;;;10.45;100.00;100672.97;2610812;36;19960;-70
2021/11/04 13:07:18;;;;;;;11.13;6.25;;;;;;;10.51;100.00;100675.09;2611447;36;20034;-71
2021/11/04 13:09:48;;;;;;;7.40;4.85;;;;;;;10.22;100.00;100686.66;2610397;36;20138;-71
2021/11/04 13:12:19;;;;;;;9.48;4.63;;;;;;;10.16;100.00;100682.69;2610947;31;20030;-70
2021/11/04 13:15:07;;;;;;;3.72;2.95;;;;;;;10.22;100.00;100683.09;2610610;36;20063;-70
2021/11/04 13:17:53;;;;;;;3.67;1.73;;;;;;;10.29;100.00;100674.38;2609992;36;20058;-70
2021/11/04 13:20:28;;;;;;;5.15;1.30;;;;;;;10.15;100.00;100683.66;2611660;36;20514;-70
2021/11/04 13:23:02;;;;;;;3.50;2.78;;;;;;;9.91;100.00;100681.34;2610517;36;20054;-71
2021/11/04 13:25:36;;;;;;;5.75;4.32;;;;;;;9.92;100.00;100691.13;2610474;36;20030;-70
2021/11/04 13:28:07;;;;;;;10.60;6.80;;;;;;;9.89;100.00;100682.44;2611014;36;20034;-70
2021/11/04 13:30:45;;;;;;;8.52;5.90;;;;;;;9.99;100.00;100688.72;2612560;31;20605;-70
2021/11/04 13:33:13;;;;;;;9.07;6.80;;;;;;;9.94;100.00;100690.97;2610894;36;20037;-70
2021/11/04 13:35:43;;;;;;;11.63;7.70;;;;;;;10.00;100.00;100693.13;2611196;36;20034;-71
2021/11/04 13:38:16;;;;;;;10.10;7.10;;;;;;;9.91;100.00;100694.78;2610768;36;20130;-70
2021/11/04 13:40:51;;;;;;;11.55;7.38;;;;;;;9.82;100.00;100696.44;2610883;36;20041;-71
2021/11/04 13:49:29;;;;;;;11.52;7.95;;;;;;;9.90;100.00;100697.59;2610095;36;20058;-70
2021/11/04 13:52:00;;;;;;;9.77;7.28;;;;;;;10.02;100.00;100696.50;2610099;36;20042;-71
2021/11/04 13:54:32;;;;;;;10.57;6.50;;;;;;;9.99;100.00;100697.63;2611740;36;20031;-71
2021/11/04 13:57:08;;;;;;;8.48;5.93;;;;;;;10.19;100.00;100695.00;2610773;36;20034;-71
2021/11/04 13:59:38;;;;;;;9.82;5.53;;;;;;;10.06;100.00;100691.72;2610694;36;20156;-70
2021/11/04 14:02:09;;;;;;;8.27;5.07;;;;;;;10.07;100.00;100693.41;2610689;36;20077;-71
2021/11/04 14:04:51;;;;;;;10.30;4.85;;;;;;;9.96;100.00;100705.13;2611387;36;20042;-70
2021/11/04 14:07:27;;;;;;;6.95;4.88;;;;;;;10.17;100.00;100713.97;2611266;36;20034;-70
2021/11/04 14:10:00;;;;;;;5.85;4.57;;;;;;;10.26;100.00;100714.13;2611585;36;20888;-70
2021/11/04 14:12:31;;;;;;;6.32;4.10;;;;;;;10.27;100.00;100715.84;2611459;36;20146;-70
2021/11/04 14:15:02;;;;;;;7.10;4.80;;;;;;;10.18;100.00;100715.66;2611474;36;20038;-70
2021/11/04 14:17:30;;;;;;;7.13;4.32;;;;;;;10.10;100.00;100710.13;2610550;31;20030;-70
2021/11/04 14:20:00;;;;;;;5.57;4.05;;;;;;;10.12;100.00;100718.91;2611834;36;20174;-70
2021/11/04 14:22:29;;;;;;;5.30;3.78;;;;;;;10.04;100.00;100725.94;2612012;31;20620;-70
2021/11/04 14:24:57;;;;;;;6.45;4.10;;;;;;;10.11;100.00;100727.09;2611812;36;20649;-70
2021/11/04 14:27:25;;;;;;;11.80;6.72;;;;;;;10.02;100.00;100728.78;2611203;36;20057;-70
2021/11/04 14:29:53;;;;;;;14.27;9.83;;;;;;;9.85;100.00;100740.16;2610705;31;20522;-71
2021/11/04 14:32:22;;;;;;;18.13;13.10;;;;;;;9.70;100.00;100742.34;2611428;36;20643;-71
2021/11/04 14:37:23;;;;;;;20.17;14.07;;;;;;;9.39;100.00;100759.28;2611579;36;20121;-70
2021/11/04 14:39:51;;;;;;;24.98;14.88;;;;;;;9.28;100.00;100756.66;2609673;36;20034;-72
2021/11/04 14:42:21;;;;;;;21.38;14.68;;;;;;;9.20;100.00;100753.75;2611376;36;20664;-71
2021/11/04 14:44:51;;;;;;;21.20;14.70;;;;;;;9.08;100.00;100771.75;2611594;36;20026;-69
2021/11/04 14:47:22;;;;;;;22.17;15.13;;;;;;;8.98;100.00;100765.44;2610557;36;20514;-70
2021/11/04 14:50:08;;;;;;;20.58;14.30;;;;;;;8.90;100.00;100772.31;2610927;36;20053;-71
2021/11/04 14:53:16;;;;;;;;;;;;;;;;;;;;;
2021/11/04 14:56:01;;;;;;;20.50;14.98;;;;;;;8.89;100.00;100781.38;2611111;31;20038;-70
2021/11/04 15:04:54;;;;;;;32.65;20.35;;;;;;;8.96;100.00;100792.44;2610349;36;20034;-70
2021/11/04 15:07:49;;;;;;;22.13;15.05;;;;;;;8.83;100.00;100805.16;2611851;36;20515;-70
2021/11/04 15:10:21;;;;;;;23.02;14.98;;;;;;;8.79;100.00;100799.19;2610480;36;20118;-69
2021/11/04 15:12:49;;;;;;;24.17;15.90;;;;;;;8.73;100.00;100803.25;2612217;36;20065;-70
2021/11/04 19:47:08;;;;;;;66.22;30.25;;;;;;;4.76;100.00;101179.66;2607469;36;20532;-70
2021/11/04 19:52:18;;;;;;;58.53;26.92;;;;;;;4.77;100.00;101174.22;2626301;36;20038;-71
2021/11/04 19:57:27;;;;;;;71.65;29.25;;;;;;;4.74;100.00;101190.38;2608501;36;20030;-70
2021/11/04 19:59:56;;;;;;;65.18;28.05;;;;;;;4.82;100.00;101196.13;2608272;36;20134;-70
2021/11/04 20:02:29;;;;;;;63.92;28.23;;;;;;;4.73;100.00;101204.69;2609097;36;20060;-70
2021/11/04 20:04:57;;;;;;;61.03;28.40;;;;;;;4.66;100.00;101204.19;2609889;31;20030;-70
2021/11/04 20:07:25;;;;;;;58.30;27.00;;;;;;;4.66;100.00;101208.66;2609957;36;20129;-70
2021/11/04 20:09:56;;;;;;;107.20;30.73;;;;;;;4.60;100.00;101209.03;2610609;36;20042;-69
2021/11/04 20:12:25;;;;;;;80.72;28.85;;;;;;;4.60;100.00;101209.03;2609880;36;20034;-70
2021/11/04 20:14:53;;;;;;;58.42;24.75;;;;;;;4.56;100.00;101219.88;2609186;36;20176;-70
2021/11/04 20:18:03;;;;;;;53.83;24.63;;;;;;;4.51;100.00;101219.25;2610240;36;20031;-70
2021/11/04 20:24:07;;;;;;;46.33;22.17;;;;;;;4.42;100.00;101233.13;2608012;36;20057;-70
2021/11/04 20:26:39;;;;;;;49.38;25.13;;;;;;;4.39;100.00;101233.28;2607849;36;20515;-69
2021/11/04 20:29:09;;;;;;;58.08;27.17;;;;;;;4.36;100.00;101238.81;2607138;36;20038;-70
2021/11/04 20:34:53;;;;;;;60.30;25.80;;;;;;;4.31;100.00;101246.19;2607345;36;20034;-69
2021/11/04 20:37:29;;;;;;;54.80;27.30;;;;;;;4.31;100.00;101252.34;2610032;36;20076;-70
2021/11/04 20:39:59;;;;;;;59.33;27.20;;;;;;;4.36;100.00;101254.78;2608791;36;20037;-70
2021/11/04 20:45:16;;;;;;;46.75;24.73;;;;;;;4.39;100.00;101260.78;2609567;36;20411;-69
2021/11/04 20:50:56;;;;;;;51.92;25.15;;;;;;;4.41;100.00;101271.38;2627854;36;20022;-69
2021/11/04 20:53:31;;;;;;;57.75;25.30;;;;;;;4.36;100.00;101273.44;2605962;36;20586;-69
2021/11/04 20:56:04;;;;;;;42.67;23.63;;;;;;;4.37;100.00;101275.16;2609017;36;20613;-69
2021/11/04 20:58:32;;;;;;;47.53;24.45;;;;;;;4.34;100.00;101277.97;2607913;36;20042;-69
2021/11/04 21:03:41;;;;;;;46.40;23.27;;;;;;;4.32;100.00;101279.88;2609192;36;20042;-70
2021/11/04 21:06:45;;;;;;;45.85;22.77;;;;;;;4.30;100.00;101287.97;2609621;36;20603;-70
2021/11/04 21:09:21;;;;;;;42.25;21.95;;;;;;;4.34;100.00;101296.63;2609624;36;20528;-70
2021/11/04 21:11:57;;;;;;;35.05;19.05;;;;;;;4.32;100.00;101295.88;2611051;36;20472;-70
2021/11/04 21:17:11;;;;;;;35.00;18.88;;;;;;;4.36;100.00;101303.59;2609663;31;20034;-70
2021/11/04 21:24:59;;;;;;;43.43;20.53;;;;;;;4.40;100.00;101309.63;2612648;31;20485;-69
2021/11/04 21:27:30;;;;;;;33.70;18.60;;;;;;;4.44;100.00;101307.66;2610389;36;20318;-70
2021/11/04 21:29:58;;;;;;;38.15;18.00;;;;;;;4.43;100.00;101314.81;2610493;31;20309;-71
2021/11/04 21:32:27;;;;;;;32.28;17.50;;;;;;;4.49;100.00;101325.13;2607212;36;20153;-69
2021/11/04 21:34:55;;;;;;;41.55;20.02;;;;;;;4.54;100.00;101323.03;2607430;36;20038;-69
2021/11/04 21:37:23;;;;;;;30.80;17.15;;;;;;;4.56;100.00;101321.16;2610395;36;20522;-70
2021/11/04 21:39:52;;;;;;;32.90;18.48;;;;;;;4.54;100.00;101328.38;2608348;36;20057;-70
2021/11/04 21:42:20;;;;;;;32.47;17.67;;;;;;;4.51;100.00;101336.53;2610324;36;20162;-70
2021/11/04 21:48:09;;;;;;;28.05;16.52;;;;;;;4.60;100.00;101334.31;2610830;36;20041;-70
2021/11/04 21:50:38;;;;;;;33.63;17.02;;;;;;;4.64;100.00;101330.50;2611032;36;20137;-70
2021/11/04 21:53:13;;;;;;;35.07;18.23;;;;;;;4.71;100.00;101332.78;2611493;36;20042;-69
2021/11/04 21:55:42;;;;;;;32.28;17.90;;;;;;;4.86;100.00;101339.03;2610181;36;20337;-69
2021/11/04 21:58:10;;;;;;;29.57;15.80;;;;;;;4.92;100.00;101337.84;2611483;36;20562;-69
2021/11/04 22:00:41;;;;;;;35.13;16.73;;;;;;;5.04;100.00;101341.59;2609105;36;20149;-69
2021/11/04 22:03:09;;;;;;;33.88;17.02;;;;;;;5.04;100.00;101349.59;2609548;36;20038;-69
2021/11/04 22:05:38;;;;;;;27.92;15.02;;;;;;;4.98;100.00;101341.97;2610721;36;20030;-69
2021/11/04 22:08:09;;;;;;;30.33;16.35;;;;;;;4.98;100.00;101341.97;2609881;36;20154;-69
2021/11/04 22:10:37;;;;;;;31.85;15.43;;;;;;;5.08;100.00;101348.50;2608934;36;20057;-69
2021/11/04 22:13:05;;;;;;;31.50;15.63;;;;;;;5.13;100.00;101349.06;2608532;36;20660;-69
2021/11/04 22:15:33;;;;;;;23.42;13.55;;;;;;;5.19;100.00;101351.38;2609746;36;20546;-69
2021/11/04 22:18:04;;;;;;;25.98;14.18;;;;;;;5.29;100.00;101358.88;2610316;36;20038;-69
2021/11/04 22:20:34;;;;;;;32.33;18.08;;;;;;;5.34;100.00;101359.44;2611126;36;20030;-69
2021/11/04 22:23:02;;;;;;;23.05;12.68;;;;;;;5.37;100.00;101359.25;2610688;36;20031;-69
2021/11/04 22:25:30;;;;;;;25.98;13.63;;;;;;;5.37;100.00;101375.28;2611618;36;20157;-69
2021/11/04 22:28:01;;;;;;;21.63;11.20;;;;;;;5.36;100.00;101368.19;2609905;36;20209;-70
2021/11/04 22:30:32;;;;;;;20.42;9.95;;;;;;;5.57;100.00;101376.78;2609592;36;20030;-69
2021/11/04 22:33:01;;;;;;;14.88;8.98;;;;;;;5.51;100.00;101375.31;2610548;36;20030;-69
2021/11/04 22:35:32;;;;;;;17.20;8.27;;;;;;;5.54;100.00;101372.47;2610159;36;20139;-69
2021/11/04 22:38:01;;;;;;;17.27;7.75;;;;;;;5.59;100.00;101373.06;2611142;36;20470;-69
2021/11/04 22:40:30;;;;;;;12.57;6.72;;;;;;;5.54;100.00;101375.16;2610472;36;20052;-68
2021/11/04 22:42:59;;;;;;;12.50;6.07;;;;;;;5.56;100.00;101372.38;2610048;36;20052;-70
2021/11/04 22:45:27;;;;;;;9.52;5.45;;;;;;;5.52;100.00;101377.06;2611304;36;20118;-69
2021/11/04 22:47:55;;;;;;;11.35;5.10;;;;;;;5.43;100.00;101385.59;2609980;36;20153;-68
2021/11/04 22:50:26;;;;;;;9.85;4.85;;;;;;;5.36;100.00;101384.22;2610209;36;20138;-69
2021/11/04 22:52:57;;;;;;;7.07;3.92;;;;;;;5.29;100.00;101390.91;2611174;36;20157;-69
2021/11/04 22:55:25;;;;;;;5.40;3.38;;;;;;;5.23;100.00;101395.63;2611110;36;20154;-69
2021/11/04 22:57:54;;;;;;;8.10;3.67;;;;;;;5.19;100.00;101398.56;2611317;31;20137;-69
2021/11/04 23:00:32;;;;;;;7.88;3.40;;;;;;;5.18;100.00;101408.38;2610459;36;20113;-70
2021/11/04 23:03:00;;;;;;;7.63;3.43;;;;;;;5.14;100.00;101404.16;2611071;36;20081;-69
2021/11/04 23:05:29;;;;;;;6.97;2.90;;;;;;;5.06;100.00;101409.06;2610761;36;20034;-69
2021/11/04 23:08:00;;;;;;;8.80;3.47;;;;;;;4.94;100.00;101412.44;2610438;36;20074;-69
2021/11/04 23:10:29;;;;;;;4.63;3.05;;;;;;;4.95;100.00;101411.47;2610283;36;20542;-68
2021/11/04 23:12:58;;;;;;;7.80;3.28;;;;;;;4.93;100.00;101410.69;2609739;36;20043;-69
2021/11/04 23:15:27;;;;;;;7.07;2.80;;;;;;;4.88;100.00;101422.47;2611046;36;20034;-69
2021/11/04 23:17:56;;;;;;;;;;;;;;;4.80;100.00;101422.06;2610860;36;20298;-70
2021/11/04 23:20:25;;;;;;;5.35;3.13;;;;;;;4.72;100.00;101434.94;2610869;36;21006;-69
2021/11/04 23:22:54;;;;;;;6.63;3.13;;;;;;;4.73;100.00;101439.34;2611176;36;20030;-70
2021/11/04 23:25:25;;;;;;;5.30;3.00;;;;;;;4.70;100.00;101434.19;2611462;31;20052;-70
2021/11/04 23:27:56;;;;;;;6.93;3.00;;;;;;;4.66;100.00;101438.81;2609882;36;20156;-69
2021/11/04 23:30:28;;;;;;;7.47;3.38;;;;;;;4.62;100.00;101441.72;2609114;36;20038;-69
2021/11/04 23:32:57;;;;;;;14.88;4.05;;;;;;;4.53;100.00;101441.31;2609727;36;20030;-70
2021/11/04 23:38:09;;;;;;;6.22;3.00;;;;;;;4.53;100.00;101448.41;2609331;36;20426;-68
2021/11/04 23:40:47;;;;;;;10.25;3.17;;;;;;;4.59;100.00;101461.41;2611025;36;20056;-68
2021/11/04 23:43:16;;;;;;;8.02;3.70;;;;;;;4.63;100.00;101454.13;2610317;36;20539;-69
2021/11/04 23:45:45;;;;;;;6.13;2.88;;;;;;;4.72;100.00;101462.47;2610606;36;20057;-68
2021/11/04 23:48:15;;;;;;;7.10;2.72;;;;;;;4.72;100.00;101459.81;2609514;36;20030;-68
2021/11/04 23:50:43;;;;;;;;;;;;;;;4.72;100.00;101462.47;2610246;36;20046;-69
2021/11/04 23:53:12;;;;;;;8.45;3.15;;;;;;;4.77;100.00;101459.56;2609927;36;19946;-70
2021/11/04 23:55:44;;;;;;;7.47;3.28;;;;;;;4.69;100.00;101465.31;2608793;36;20502;-68
2021/11/04 23:58:13;;;;;;;5.93;2.97;;;;;;;4.67;100.00;101471.69;2609683;36;20431;-68
